Burlingame, CA

6:05 AM PST on January 27, 2015 (GMT -0800)
Half Moon Bay | Change Station
CLOSE
Current Station
Airport
Location: Half Moon Bay,
Elevation: 66 ft
Nearby Weather Stations

Elev 66 ft 37.51 °N, 122.50 °W | Updated 10 minutes ago

Overcast
Overcast
59 °F
Feels Like 59 °F
N
14
Wind Variable Wind from South

Today
High -- | Low -- °F
--% Chance of Precip.
Yesterday
High -- | Low -- °F
Precip. -- in
7:17 AM 5:27 PM
First Quarter, 54% visible
Pressure 30.11 in
Visibility 9.0 miles
Clouds Few 7000 ft
Mostly Cloudy 9000 ft
Overcast 12000 ft
Dew Point 52 °F
Humidity 77%
Rainfall 0.00 in
Snow Depth Not available.
UV 0 out of 12
Pollen 6.80 out of 12
Air Quality Not available.
Flu Activity Not available.
METAR KHAF 271355Z AUTO 17012KT 9SM FEW070 BKN090 OVC120 15/11 A3011 RMK AO2

More Conditions Fewer Conditions

Pressure 30.11 in
Visibility 9.0 miles
Clouds Few 7000 ft
Mostly Cloudy 9000 ft
Overcast 12000 ft
Dew Point 52 °F
Humidity 77%
Rainfall 0.00 in
Snow Depth Not available.
UV 0 out of 12
Pollen 6.80 out of 12
Air Quality Not available.
Flu Activity Not available.
METAR KHAF 271355Z AUTO 17012KT 9SM FEW070 BKN090 OVC120 15/11 A3011 RMK AO2

More Conditions Fewer Conditions

10-Day Weather Forecast

Almanac

Astronomy

Jan. 27, 2015 Rise Set
Actual Time
Civil Twilight
Nautical Twilight
Astronomical Twilight
Moon
Length of Visible Light
Length of Day
Tomorrow will be .
, % of the Moon is Illuminated

Today's Extremes

State Highs State Lows

Community

WunderPhotos

Upload Photos

1,790,637 photos uploaded!

WunderBlogs® & News

Nearby

Air Quality

  Air Quality AQ Index Pollutant
Not available.

Snow Depth

Station Depth Elevation

Earthquake Activity

City Distance Mag. Time & Date
Minimum magnitude displayed is 2.5.

Coastal Water Temperatures

Place Temperature

Nearby Weather Stations